Nelsonville, Wisconsin
Current Conditions -  °F | °C
As of 2:15 PM on Thursday 29 Jan 2015 (Local Time) from KSTE Reporting Station
Overcast Overcast  
Wind Chill: -7°   Ceiling: 3600
Heat Index:   Visibility: 10mi
Dew Point: -7°   Wind: 18mph
Humidity: 60%   Direction: 320°NW
Pressure: 30.01"   Gusts: 24mph
Location:  44.49°N, 89.31°W
Report Text: KSTE 292015Z AUTO 32016G21KT 10SM OVC036 00/M07 A3001 RMK AO2 T10011070
Loading
Personal Weather Stations






























Interactive Weather Map New forecast layout! Learn more

10-Day Weather Forecast

Advertisements
Track Severe Weather on mobile